sensor_id;sensor_type;location;lat;lon;timestamp;temperature;humidity
23721;DHT22;42950;52.134;5.578;2023-05-10T00:00:59;14.30;99.90
23721;DHT22;42950;52.134;5.578;2023-05-10T00:03:25;14.30;99.90
23721;DHT22;42950;52.134;5.578;2023-05-10T00:05:51;14.30;99.90
23721;DHT22;42950;52.134;5.578;2023-05-10T00:08:16;14.30;99.90
23721;DHT22;42950;52.134;5.578;2023-05-10T00:10:42;14.30;99.90
23721;DHT22;42950;52.134;5.578;2023-05-10T00:13:08;14.30;99.90
23721;DHT22;42950;52.134;5.578;2023-05-10T00:15:33;14.30;99.90
23721;DHT22;42950;52.134;5.578;2023-05-10T00:18:00;14.30;99.90
23721;DHT22;42950;52.134;5.578;2023-05-10T00:20:26;14.40;99.90
23721;DHT22;42950;52.134;5.578;2023-05-10T00:22:52;14.40;99.90
23721;DHT22;42950;52.134;5.578;2023-05-10T00:25:18;14.40;99.90
23721;DHT22;42950;52.134;5.578;2023-05-10T00:27:43;14.30;99.90
23721;DHT22;42950;52.134;5.578;2023-05-10T00:30:09;14.30;99.90
23721;DHT22;42950;52.134;5.578;2023-05-10T00:32:36;14.40;99.90
23721;DHT22;42950;52.134;5.578;2023-05-10T00:35:01;14.30;99.90
23721;DHT22;42950;52.134;5.578;2023-05-10T00:37:27;14.30;99.90
23721;DHT22;42950;52.134;5.578;2023-05-10T00:39:53;14.30;99.90
23721;DHT22;42950;52.134;5.578;2023-05-10T00:42:18;14.30;99.90
23721;DHT22;42950;52.134;5.578;2023-05-10T00:44:44;14.20;99.90
23721;DHT22;42950;52.134;5.578;2023-05-10T00:47:10;14.20;99.90
23721;DHT22;42950;52.134;5.578;2023-05-10T00:49:37;14.20;99.90
23721;DHT22;42950;52.134;5.578;2023-05-10T00:52:03;14.10;99.90
23721;DHT22;42950;52.134;5.578;2023-05-10T00:54:29;14.10;99.90
23721;DHT22;42950;52.134;5.578;2023-05-10T00:56:55;14.10;99.90
23721;DHT22;42950;52.134;5.578;2023-05-10T00:59:23;14.10;99.90
23721;DHT22;42950;52.134;5.578;2023-05-10T01:01:49;14.10;99.90
23721;DHT22;42950;52.134;5.578;2023-05-10T01:04:15;14.10;99.90
23721;DHT22;42950;52.134;5.578;2023-05-10T01:06:42;14.00;99.90
23721;DHT22;42950;52.134;5.578;2023-05-10T01:09:08;13.90;99.90
23721;DHT22;42950;52.134;5.578;2023-05-10T01:11:38;13.90;99.90
23721;DHT22;42950;52.134;5.578;2023-05-10T01:14:04;13.90;99.90
23721;DHT22;42950;52.134;5.578;2023-05-10T01:16:37;13.80;99.90
23721;DHT22;42950;52.134;5.578;2023-05-10T01:19:12;13.80;99.90
23721;DHT22;42950;52.134;5.578;2023-05-10T01:35:25;13.80;99.90
23721;DHT22;42950;52.134;5.578;2023-05-10T01:38:18;13.70;99.90
23721;DHT22;42950;52.134;5.578;2023-05-10T01:43:19;13.80;99.90
23721;DHT22;42950;52.134;5.578;2023-05-10T01:46:07;13.70;99.90
23721;DHT22;42950;52.134;5.578;2023-05-10T01:48:40;13.70;99.90
23721;DHT22;42950;52.134;5.578;2023-05-10T01:51:11;13.70;99.90
23721;DHT22;42950;52.134;5.578;2023-05-10T01:53:39;13.70;99.90
23721;DHT22;42950;52.134;5.578;2023-05-10T01:56:07;13.70;99.90
23721;DHT22;42950;52.134;5.578;2023-05-10T01:58:34;13.70;99.90
23721;DHT22;42950;52.134;5.578;2023-05-10T02:01:03;13.80;99.90
23721;DHT22;42950;52.134;5.578;2023-05-10T02:03:31;13.80;99.90
23721;DHT22;42950;52.134;5.578;2023-05-10T02:05:57;13.70;99.90
23721;DHT22;42950;52.134;5.578;2023-05-10T02:08:25;13.80;99.90
23721;DHT22;42950;52.134;5.578;2023-05-10T02:10:55;13.80;99.90
23721;DHT22;42950;52.134;5.578;2023-05-10T02:13:24;13.80;99.90
23721;DHT22;42950;52.134;5.578;2023-05-10T02:15:52;13.80;99.90
23721;DHT22;42950;52.134;5.578;2023-05-10T02:18:18;13.70;99.90
23721;DHT22;42950;52.134;5.578;2023-05-10T02:20:47;13.70;99.90
23721;DHT22;42950;52.134;5.578;2023-05-10T02:23:14;13.70;99.90
23721;DHT22;42950;52.134;5.578;2023-05-10T02:25:43;13.70;99.90
23721;DHT22;42950;52.134;5.578;2023-05-10T02:28:10;13.70;99.90
23721;DHT22;42950;52.134;5.578;2023-05-10T02:30:37;13.70;99.90
23721;DHT22;42950;52.134;5.578;2023-05-10T02:33:05;13.70;99.90
23721;DHT22;42950;52.134;5.578;2023-05-10T02:35:32;13.70;99.90
23721;DHT22;42950;52.134;5.578;2023-05-10T02:37:59;13.70;99.90
23721;DHT22;42950;52.134;5.578;2023-05-10T02:40:26;13.70;99.90
23721;DHT22;42950;52.134;5.578;2023-05-10T02:42:54;13.70;99.90
23721;DHT22;42950;52.134;5.578;2023-05-10T02:45:24;13.70;99.90
23721;DHT22;42950;52.134;5.578;2023-05-10T02:47:52;13.70;99.90
23721;DHT22;42950;52.134;5.578;2023-05-10T02:50:19;13.70;99.90
23721;DHT22;42950;52.134;5.578;2023-05-10T02:52:51;13.70;99.90
23721;DHT22;42950;52.134;5.578;2023-05-10T02:55:19;13.70;99.90
23721;DHT22;42950;52.134;5.578;2023-05-10T02:57:52;13.70;99.90
23721;DHT22;42950;52.134;5.578;2023-05-10T03:00:19;13.70;99.90
23721;DHT22;42950;52.134;5.578;2023-05-10T03:02:44;13.70;99.90
23721;DHT22;42950;52.134;5.578;2023-05-10T03:05:10;13.60;99.90
23721;DHT22;42950;52.134;5.578;2023-05-10T03:07:37;13.60;99.90
23721;DHT22;42950;52.134;5.578;2023-05-10T03:10:03;13.50;99.90
23721;DHT22;42950;52.134;5.578;2023-05-10T03:13:10;13.50;99.90
23721;DHT22;42950;52.134;5.578;2023-05-10T03:15:57;13.40;99.90
23721;DHT22;42950;52.134;5.578;2023-05-10T03:18:33;13.40;99.90
23721;DHT22;42950;52.134;5.578;2023-05-10T03:21:04;13.40;99.90
23721;DHT22;42950;52.134;5.578;2023-05-10T03:23:43;13.40;99.90
23721;DHT22;42950;52.134;5.578;2023-05-10T03:26:10;13.40;99.90
23721;DHT22;42950;52.134;5.578;2023-05-10T03:28:39;13.30;99.90
23721;DHT22;42950;52.134;5.578;2023-05-10T03:31:05;13.30;99.90
23721;DHT22;42950;52.134;5.578;2023-05-10T03:33:31;13.20;99.90
23721;DHT22;42950;52.134;5.578;2023-05-10T03:35:57;13.20;99.90
23721;DHT22;42950;52.134;5.578;2023-05-10T03:38:23;13.10;99.90
23721;DHT22;42950;52.134;5.578;2023-05-10T03:40:49;13.10;99.90
23721;DHT22;42950;52.134;5.578;2023-05-10T03:43:15;13.10;99.90
23721;DHT22;42950;52.134;5.578;2023-05-10T03:45:40;13.10;99.90
23721;DHT22;42950;52.134;5.578;2023-05-10T03:48:08;13.20;99.90
23721;DHT22;42950;52.134;5.578;2023-05-10T03:50:34;13.20;99.90
23721;DHT22;42950;52.134;5.578;2023-05-10T03:53:00;13.10;99.90
23721;DHT22;42950;52.134;5.578;2023-05-10T03:55:26;13.10;99.90
23721;DHT22;42950;52.134;5.578;2023-05-10T03:57:53;13.00;99.90
23721;DHT22;42950;52.134;5.578;2023-05-10T04:00:19;13.00;99.90
23721;DHT22;42950;52.134;5.578;2023-05-10T04:02:45;13.00;99.90
23721;DHT22;42950;52.134;5.578;2023-05-10T04:05:12;12.90;99.90
23721;DHT22;42950;52.134;5.578;2023-05-10T04:07:38;12.90;99.90
23721;DHT22;42950;52.134;5.578;2023-05-10T04:10:04;12.90;99.90
23721;DHT22;42950;52.134;5.578;2023-05-10T04:12:30;12.90;99.90
23721;DHT22;42950;52.134;5.578;2023-05-10T04:14:56;12.90;99.90
23721;DHT22;42950;52.134;5.578;2023-05-10T04:17:21;12.90;99.90
23721;DHT22;42950;52.134;5.578;2023-05-10T04:19:47;13.00;99.90
23721;DHT22;42950;52.134;5.578;2023-05-10T04:22:13;12.90;99.90
23721;DHT22;42950;52.134;5.578;2023-05-10T04:24:38;12.90;99.90
23721;DHT22;42950;52.134;5.578;2023-05-10T04:27:04;12.90;99.90
23721;DHT22;42950;52.134;5.578;2023-05-10T04:29:30;12.90;99.90
23721;DHT22;42950;52.134;5.578;2023-05-10T04:31:57;13.00;99.90
23721;DHT22;42950;52.134;5.578;2023-05-10T04:34:24;12.90;99.90
23721;DHT22;42950;52.134;5.578;2023-05-10T04:36:49;13.00;99.90
23721;DHT22;42950;52.134;5.578;2023-05-10T04:39:15;12.90;99.90
23721;DHT22;42950;52.134;5.578;2023-05-10T04:41:41;12.90;99.90
23721;DHT22;42950;52.134;5.578;2023-05-10T04:44:08;13.00;99.90
23721;DHT22;42950;52.134;5.578;2023-05-10T04:46:33;13.00;99.90
23721;DHT22;42950;52.134;5.578;2023-05-10T04:48:59;13.00;99.90
23721;DHT22;42950;52.134;5.578;2023-05-10T04:51:24;13.00;99.90
23721;DHT22;42950;52.134;5.578;2023-05-10T04:53:50;13.00;99.90
23721;DHT22;42950;52.134;5.578;2023-05-10T04:56:16;13.00;99.90
23721;DHT22;42950;52.134;5.578;2023-05-10T04:58:43;13.10;99.90
23721;DHT22;42950;52.134;5.578;2023-05-10T05:01:09;13.10;99.90
23721;DHT22;42950;52.134;5.578;2023-05-10T05:03:36;13.20;99.90
23721;DHT22;42950;52.134;5.578;2023-05-10T05:06:02;13.10;99.90
23721;DHT22;42950;52.134;5.578;2023-05-10T05:08:33;13.00;99.90
23721;DHT22;42950;52.134;5.578;2023-05-10T05:11:00;13.10;99.90
23721;DHT22;42950;52.134;5.578;2023-05-10T05:13:26;13.20;99.90
23721;DHT22;42950;52.134;5.578;2023-05-10T05:15:52;13.20;99.90
23721;DHT22;42950;52.134;5.578;2023-05-10T05:18:18;13.20;99.90
23721;DHT22;42950;52.134;5.578;2023-05-10T05:20:45;13.20;99.90
23721;DHT22;42950;52.134;5.578;2023-05-10T05:23:11;13.20;99.90
23721;DHT22;42950;52.134;5.578;2023-05-10T05:25:37;13.20;99.90
23721;DHT22;42950;52.134;5.578;2023-05-10T05:28:03;13.30;99.90
23721;DHT22;42950;52.134;5.578;2023-05-10T05:30:29;13.30;99.90
23721;DHT22;42950;52.134;5.578;2023-05-10T05:32:54;13.30;99.90
23721;DHT22;42950;52.134;5.578;2023-05-10T05:35:20;13.30;99.90
23721;DHT22;42950;52.134;5.578;2023-05-10T05:37:46;13.20;99.90
23721;DHT22;42950;52.134;5.578;2023-05-10T05:40:14;13.30;99.90
23721;DHT22;42950;52.134;5.578;2023-05-10T05:42:40;13.20;99.90
23721;DHT22;42950;52.134;5.578;2023-05-10T05:45:06;13.20;99.90
23721;DHT22;42950;52.134;5.578;2023-05-10T05:47:32;13.20;99.90
23721;DHT22;42950;52.134;5.578;2023-05-10T05:49:58;13.30;99.90
23721;DHT22;42950;52.134;5.578;2023-05-10T05:52:23;13.30;99.90
23721;DHT22;42950;52.134;5.578;2023-05-10T05:54:49;13.30;99.90
23721;DHT22;42950;52.134;5.578;2023-05-10T05:57:14;13.30;99.90
23721;DHT22;42950;52.134;5.578;2023-05-10T05:59:40;13.30;99.90
23721;DHT22;42950;52.134;5.578;2023-05-10T06:02:09;13.20;99.90
23721;DHT22;42950;52.134;5.578;2023-05-10T06:04:35;13.20;99.90
23721;DHT22;42950;52.134;5.578;2023-05-10T06:07:01;13.20;99.90
23721;DHT22;42950;52.134;5.578;2023-05-10T06:09:26;13.20;99.90
23721;DHT22;42950;52.134;5.578;2023-05-10T06:11:52;13.20;99.90
23721;DHT22;42950;52.134;5.578;2023-05-10T06:14:20;13.20;99.90
23721;DHT22;42950;52.134;5.578;2023-05-10T06:16:46;13.30;99.90
23721;DHT22;42950;52.134;5.578;2023-05-10T06:19:12;13.40;99.90
23721;DHT22;42950;52.134;5.578;2023-05-10T06:21:38;13.20;99.90
23721;DHT22;42950;52.134;5.578;2023-05-10T06:24:05;13.20;99.90
23721;DHT22;42950;52.134;5.578;2023-05-10T06:26:33;13.10;99.90
23721;DHT22;42950;52.134;5.578;2023-05-10T06:28:59;13.10;99.90
23721;DHT22;42950;52.134;5.578;2023-05-10T06:31:24;13.10;99.90
23721;DHT22;42950;52.134;5.578;2023-05-10T06:33:54;13.00;99.90
23721;DHT22;42950;52.134;5.578;2023-05-10T06:36:20;13.00;99.90
23721;DHT22;42950;52.134;5.578;2023-05-10T06:38:46;12.90;99.90
23721;DHT22;42950;52.134;5.578;2023-05-10T06:41:12;13.00;99.90
23721;DHT22;42950;52.134;5.578;2023-05-10T06:43:37;13.00;99.90
23721;DHT22;42950;52.134;5.578;2023-05-10T06:46:06;13.00;99.90
23721;DHT22;42950;52.134;5.578;2023-05-10T06:48:32;13.10;99.90
23721;DHT22;42950;52.134;5.578;2023-05-10T06:50:58;13.10;99.90
23721;DHT22;42950;52.134;5.578;2023-05-10T06:53:24;13.20;99.90
23721;DHT22;42950;52.134;5.578;2023-05-10T06:55:50;13.30;99.90
23721;DHT22;42950;52.134;5.578;2023-05-10T06:58:15;13.30;99.90
23721;DHT22;42950;52.134;5.578;2023-05-10T07:00:41;13.50;99.90
23721;DHT22;42950;52.134;5.578;2023-05-10T07:03:10;13.40;99.90
23721;DHT22;42950;52.134;5.578;2023-05-10T07:05:36;13.40;99.90
23721;DHT22;42950;52.134;5.578;2023-05-10T07:08:01;13.30;99.90
23721;DHT22;42950;52.134;5.578;2023-05-10T07:10:27;13.20;99.90
23721;DHT22;42950;52.134;5.578;2023-05-10T07:12:54;13.20;99.90
23721;DHT22;42950;52.134;5.578;2023-05-10T07:15:21;13.30;99.90
23721;DHT22;42950;52.134;5.578;2023-05-10T07:17:46;13.50;99.90
23721;DHT22;42950;52.134;5.578;2023-05-10T07:20:12;13.50;99.90
23721;DHT22;42950;52.134;5.578;2023-05-10T07:22:38;13.60;99.90
23721;DHT22;42950;52.134;5.578;2023-05-10T07:25:04;13.60;99.90
23721;DHT22;42950;52.134;5.578;2023-05-10T07:27:31;13.50;99.90
23721;DHT22;42950;52.134;5.578;2023-05-10T07:29:57;13.50;99.90
23721;DHT22;42950;52.134;5.578;2023-05-10T07:32:24;13.70;99.90
23721;DHT22;42950;52.134;5.578;2023-05-10T07:34:49;13.70;99.90
23721;DHT22;42950;52.134;5.578;2023-05-10T07:37:16;13.70;99.90
23721;DHT22;42950;52.134;5.578;2023-05-10T07:39:42;13.80;99.90
23721;DHT22;42950;52.134;5.578;2023-05-10T07:42:07;14.00;99.90
23721;DHT22;42950;52.134;5.578;2023-05-10T07:44:33;14.00;99.90
23721;DHT22;42950;52.134;5.578;2023-05-10T07:46:59;13.90;99.90
23721;DHT22;42950;52.134;5.578;2023-05-10T07:49:25;13.80;99.90
23721;DHT22;42950;52.134;5.578;2023-05-10T07:51:53;13.80;99.90
23721;DHT22;42950;52.134;5.578;2023-05-10T07:54:18;13.70;99.90
23721;DHT22;42950;52.134;5.578;2023-05-10T07:56:44;13.80;99.90
23721;DHT22;42950;52.134;5.578;2023-05-10T07:59:16;13.80;99.90
23721;DHT22;42950;52.134;5.578;2023-05-10T08:01:43;13.70;99.90
23721;DHT22;42950;52.134;5.578;2023-05-10T08:04:08;13.70;99.90
23721;DHT22;42950;52.134;5.578;2023-05-10T08:06:34;13.80;99.90
23721;DHT22;42950;52.134;5.578;2023-05-10T08:09:00;13.70;99.90
23721;DHT22;42950;52.134;5.578;2023-05-10T08:11:26;13.80;99.90
23721;DHT22;42950;52.134;5.578;2023-05-10T08:13:53;13.70;99.90
23721;DHT22;42950;52.134;5.578;2023-05-10T08:16:19;13.70;99.90
23721;DHT22;42950;52.134;5.578;2023-05-10T08:18:46;13.80;99.90
23721;DHT22;42950;52.134;5.578;2023-05-10T08:21:13;13.80;99.90
23721;DHT22;42950;52.134;5.578;2023-05-10T08:23:39;13.80;99.90
23721;DHT22;42950;52.134;5.578;2023-05-10T08:26:04;13.90;99.90
23721;DHT22;42950;52.134;5.578;2023-05-10T08:28:30;14.00;99.90
23721;DHT22;42950;52.134;5.578;2023-05-10T08:30:56;14.10;99.90
23721;DHT22;42950;52.134;5.578;2023-05-10T08:33:22;14.10;99.90
23721;DHT22;42950;52.134;5.578;2023-05-10T08:35:48;14.00;99.90
23721;DHT22;42950;52.134;5.578;2023-05-10T08:38:13;14.00;99.90
23721;DHT22;42950;52.134;5.578;2023-05-10T08:40:43;14.00;99.90
23721;DHT22;42950;52.134;5.578;2023-05-10T08:43:10;14.10;99.90
23721;DHT22;42950;52.134;5.578;2023-05-10T08:45:44;14.30;99.90
23721;DHT22;42950;52.134;5.578;2023-05-10T08:48:14;14.40;99.90
23721;DHT22;42950;52.134;5.578;2023-05-10T08:50:41;14.50;99.90
23721;DHT22;42950;52.134;5.578;2023-05-10T08:53:12;14.40;99.90
23721;DHT22;42950;52.134;5.578;2023-05-10T08:55:39;14.30;99.90
23721;DHT22;42950;52.134;5.578;2023-05-10T08:58:05;14.10;99.90
23721;DHT22;42950;52.134;5.578;2023-05-10T09:00:32;14.10;99.90
23721;DHT22;42950;52.134;5.578;2023-05-10T09:02:58;14.20;99.90
23721;DHT22;42950;52.134;5.578;2023-05-10T09:05:24;14.20;99.90
23721;DHT22;42950;52.134;5.578;2023-05-10T09:07:50;14.10;99.90
23721;DHT22;42950;52.134;5.578;2023-05-10T09:10:15;14.10;99.90
23721;DHT22;42950;52.134;5.578;2023-05-10T09:12:42;14.10;99.90
23721;DHT22;42950;52.134;5.578;2023-05-10T09:15:10;14.10;99.90
23721;DHT22;42950;52.134;5.578;2023-05-10T09:17:38;14.10;99.90
23721;DHT22;42950;52.134;5.578;2023-05-10T09:20:06;14.00;99.90
23721;DHT22;42950;52.134;5.578;2023-05-10T09:22:32;14.00;99.90
23721;DHT22;42950;52.134;5.578;2023-05-10T09:25:08;13.90;99.90
23721;DHT22;42950;52.134;5.578;2023-05-10T09:27:35;13.70;99.90
23721;DHT22;42950;52.134;5.578;2023-05-10T09:30:01;13.80;99.90
23721;DHT22;42950;52.134;5.578;2023-05-10T09:32:47;13.90;99.90
23721;DHT22;42950;52.134;5.578;2023-05-10T09:35:18;14.10;99.90
23721;DHT22;42950;52.134;5.578;2023-05-10T09:37:46;14.30;99.90
23721;DHT22;42950;52.134;5.578;2023-05-10T09:40:21;14.50;99.90
23721;DHT22;42950;52.134;5.578;2023-05-10T09:43:03;14.60;99.90
23721;DHT22;42950;52.134;5.578;2023-05-10T09:45:34;14.70;99.90
23721;DHT22;42950;52.134;5.578;2023-05-10T09:48:01;15.10;99.90
23721;DHT22;42950;52.134;5.578;2023-05-10T09:50:28;15.20;99.90
23721;DHT22;42950;52.134;5.578;2023-05-10T09:52:57;15.30;99.90
23721;DHT22;42950;52.134;5.578;2023-05-10T09:55:26;15.40;99.90
23721;DHT22;42950;52.134;5.578;2023-05-10T09:58:03;15.40;99.90
23721;DHT22;42950;52.134;5.578;2023-05-10T10:00:35;15.50;99.90
23721;DHT22;42950;52.134;5.578;2023-05-10T10:03:01;15.80;99.90
23721;DHT22;42950;52.134;5.578;2023-05-10T10:05:34;16.00;99.90
23721;DHT22;42950;52.134;5.578;2023-05-10T10:08:03;16.20;99.90
23721;DHT22;42950;52.134;5.578;2023-05-10T10:10:31;16.20;99.90
23721;DHT22;42950;52.134;5.578;2023-05-10T10:12:57;16.20;99.90
23721;DHT22;42950;52.134;5.578;2023-05-10T10:15:24;16.30;99.90
23721;DHT22;42950;52.134;5.578;2023-05-10T10:17:52;16.30;99.90
23721;DHT22;42950;52.134;5.578;2023-05-10T10:20:19;16.40;99.90
23721;DHT22;42950;52.134;5.578;2023-05-10T10:22:45;16.50;99.90
23721;DHT22;42950;52.134;5.578;2023-05-10T10:25:16;16.60;99.90
23721;DHT22;42950;52.134;5.578;2023-05-10T10:30:48;16.70;99.90
23721;DHT22;42950;52.134;5.578;2023-05-10T10:35:47;16.60;99.90
23721;DHT22;42950;52.134;5.578;2023-05-10T10:38:13;16.50;99.90
23721;DHT22;42950;52.134;5.578;2023-05-10T10:40:39;16.50;99.90
23721;DHT22;42950;52.134;5.578;2023-05-10T10:48:49;16.70;99.90
23721;DHT22;42950;52.134;5.578;2023-05-10T10:51:17;16.50;99.90
23721;DHT22;42950;52.134;5.578;2023-05-10T10:53:43;16.50;99.90
23721;DHT22;42950;52.134;5.578;2023-05-10T10:56:10;16.70;99.90
23721;DHT22;42950;52.134;5.578;2023-05-10T10:58:37;16.70;99.90
23721;DHT22;42950;52.134;5.578;2023-05-10T11:01:17;16.80;99.90
23721;DHT22;42950;52.134;5.578;2023-05-10T11:06:33;16.90;99.90
23721;DHT22;42950;52.134;5.578;2023-05-10T11:09:05;17.10;99.90
23721;DHT22;42950;52.134;5.578;2023-05-10T11:11:34;17.00;99.90
23721;DHT22;42950;52.134;5.578;2023-05-10T11:14:07;16.90;99.90
23721;DHT22;42950;52.134;5.578;2023-05-10T11:16:43;16.80;99.90
23721;DHT22;42950;52.134;5.578;2023-05-10T11:19:12;16.80;99.90
23721;DHT22;42950;52.134;5.578;2023-05-10T11:22:11;16.70;99.90
23721;DHT22;42950;52.134;5.578;2023-05-10T11:24:38;16.80;99.90
23721;DHT22;42950;52.134;5.578;2023-05-10T11:27:04;16.70;99.90
23721;DHT22;42950;52.134;5.578;2023-05-10T11:29:29;16.90;99.90
23721;DHT22;42950;52.134;5.578;2023-05-10T11:31:59;17.00;99.90
23721;DHT22;42950;52.134;5.578;2023-05-10T11:34:25;17.00;99.90
23721;DHT22;42950;52.134;5.578;2023-05-10T11:36:52;17.10;99.90
23721;DHT22;42950;52.134;5.578;2023-05-10T11:39:19;17.20;99.90
23721;DHT22;42950;52.134;5.578;2023-05-10T11:41:48;17.30;99.90
23721;DHT22;42950;52.134;5.578;2023-05-10T11:44:14;17.30;99.90
23721;DHT22;42950;52.134;5.578;2023-05-10T11:46:41;17.20;99.90
23721;DHT22;42950;52.134;5.578;2023-05-10T11:49:07;17.30;99.90
23721;DHT22;42950;52.134;5.578;2023-05-10T11:51:34;17.40;99.90
23721;DHT22;42950;52.134;5.578;2023-05-10T11:54:06;17.30;99.90
23721;DHT22;42950;52.134;5.578;2023-05-10T11:56:32;17.30;99.90
23721;DHT22;42950;52.134;5.578;2023-05-10T11:58:58;17.30;99.90
23721;DHT22;42950;52.134;5.578;2023-05-10T12:01:26;17.40;99.90
23721;DHT22;42950;52.134;5.578;2023-05-10T12:03:54;17.30;99.90
23721;DHT22;42950;52.134;5.578;2023-05-10T12:06:21;17.40;99.90
23721;DHT22;42950;52.134;5.578;2023-05-10T12:08:47;17.30;99.90
23721;DHT22;42950;52.134;5.578;2023-05-10T12:11:15;17.40;99.90
23721;DHT22;42950;52.134;5.578;2023-05-10T12:13:42;17.30;99.90
23721;DHT22;42950;52.134;5.578;2023-05-10T12:16:20;17.60;99.90
23721;DHT22;42950;52.134;5.578;2023-05-10T12:18:54;17.80;99.90
23721;DHT22;42950;52.134;5.578;2023-05-10T12:21:21;17.90;99.90
23721;DHT22;42950;52.134;5.578;2023-05-10T12:23:50;17.80;99.90
23721;DHT22;42950;52.134;5.578;2023-05-10T12:26:16;17.60;99.90
23721;DHT22;42950;52.134;5.578;2023-05-10T12:28:42;17.70;99.90
23721;DHT22;42950;52.134;5.578;2023-05-10T12:31:07;17.80;99.90
23721;DHT22;42950;52.134;5.578;2023-05-10T12:33:43;17.90;99.90
23721;DHT22;42950;52.134;5.578;2023-05-10T12:36:11;17.80;99.90
23721;DHT22;42950;52.134;5.578;2023-05-10T12:38:42;18.00;99.90
23721;DHT22;42950;52.134;5.578;2023-05-10T12:41:12;18.30;99.90
23721;DHT22;42950;52.134;5.578;2023-05-10T12:43:39;18.30;99.90
23721;DHT22;42950;52.134;5.578;2023-05-10T12:46:10;18.30;99.90
23721;DHT22;42950;52.134;5.578;2023-05-10T12:48:36;18.30;99.90
23721;DHT22;42950;52.134;5.578;2023-05-10T12:51:03;18.70;99.90
23721;DHT22;42950;52.134;5.578;2023-05-10T12:53:29;18.80;99.90
23721;DHT22;42950;52.134;5.578;2023-05-10T12:55:55;18.80;99.90
23721;DHT22;42950;52.134;5.578;2023-05-10T12:58:21;18.80;99.90
23721;DHT22;42950;52.134;5.578;2023-05-10T13:00:47;18.50;99.90
23721;DHT22;42950;52.134;5.578;2023-05-10T13:03:12;18.30;99.90
23721;DHT22;42950;52.134;5.578;2023-05-10T13:05:40;18.60;99.90
23721;DHT22;42950;52.134;5.578;2023-05-10T13:08:06;18.80;99.90
23721;DHT22;42950;52.134;5.578;2023-05-10T13:10:32;18.90;99.90
23721;DHT22;42950;52.134;5.578;2023-05-10T13:12:58;18.90;99.90
23721;DHT22;42950;52.134;5.578;2023-05-10T13:15:25;19.20;99.90
23721;DHT22;42950;52.134;5.578;2023-05-10T13:17:51;19.30;99.90
23721;DHT22;42950;52.134;5.578;2023-05-10T13:20:17;19.20;99.90
23721;DHT22;42950;52.134;5.578;2023-05-10T13:22:45;19.30;99.90
23721;DHT22;42950;52.134;5.578;2023-05-10T13:25:11;19.30;99.90
23721;DHT22;42950;52.134;5.578;2023-05-10T13:27:40;19.10;99.90
23721;DHT22;42950;52.134;5.578;2023-05-10T13:30:08;19.00;99.90
23721;DHT22;42950;52.134;5.578;2023-05-10T13:32:34;18.90;99.90
23721;DHT22;42950;52.134;5.578;2023-05-10T13:35:00;18.80;99.90
23721;DHT22;42950;52.134;5.578;2023-05-10T13:37:25;18.60;99.90
23721;DHT22;42950;52.134;5.578;2023-05-10T13:39:51;18.50;99.90
23721;DHT22;42950;52.134;5.578;2023-05-10T13:42:17;18.50;99.90
23721;DHT22;42950;52.134;5.578;2023-05-10T13:44:45;18.50;99.90
23721;DHT22;42950;52.134;5.578;2023-05-10T13:47:11;18.60;99.90
23721;DHT22;42950;52.134;5.578;2023-05-10T13:49:36;18.10;99.90
23721;DHT22;42950;52.134;5.578;2023-05-10T13:52:02;17.60;99.90
23721;DHT22;42950;52.134;5.578;2023-05-10T13:54:34;17.20;99.90
23721;DHT22;42950;52.134;5.578;2023-05-10T13:57:01;16.80;99.90
23721;DHT22;42950;52.134;5.578;2023-05-10T13:59:28;16.50;99.90
23721;DHT22;42950;52.134;5.578;2023-05-10T14:01:54;16.30;99.90
23721;DHT22;42950;52.134;5.578;2023-05-10T14:04:21;16.10;99.90
23721;DHT22;42950;52.134;5.578;2023-05-10T14:06:46;15.80;99.90
23721;DHT22;42950;52.134;5.578;2023-05-10T14:09:12;15.70;99.90
23721;DHT22;42950;52.134;5.578;2023-05-10T14:11:38;15.60;99.90
23721;DHT22;42950;52.134;5.578;2023-05-10T14:14:07;15.50;99.90
23721;DHT22;42950;52.134;5.578;2023-05-10T14:16:32;15.30;99.90
23721;DHT22;42950;52.134;5.578;2023-05-10T14:18:59;15.20;99.90
23721;DHT22;42950;52.134;5.578;2023-05-10T14:21:27;15.10;99.90
23721;DHT22;42950;52.134;5.578;2023-05-10T14:23:54;15.00;99.90
23721;DHT22;42950;52.134;5.578;2023-05-10T14:26:22;14.80;99.90
23721;DHT22;42950;52.134;5.578;2023-05-10T14:28:47;14.80;99.90
23721;DHT22;42950;52.134;5.578;2023-05-10T14:31:15;14.80;99.90
23721;DHT22;42950;52.134;5.578;2023-05-10T14:33:42;14.90;99.90
23721;DHT22;42950;52.134;5.578;2023-05-10T14:36:08;14.90;99.90
23721;DHT22;42950;52.134;5.578;2023-05-10T14:38:34;14.90;99.90
23721;DHT22;42950;52.134;5.578;2023-05-10T14:41:02;14.90;99.90
23721;DHT22;42950;52.134;5.578;2023-05-10T14:43:27;14.80;99.90
23721;DHT22;42950;52.134;5.578;2023-05-10T14:45:53;15.00;99.90
23721;DHT22;42950;52.134;5.578;2023-05-10T14:48:21;14.90;99.90
23721;DHT22;42950;52.134;5.578;2023-05-10T14:50:47;14.90;99.90
23721;DHT22;42950;52.134;5.578;2023-05-10T14:53:12;14.80;99.90
23721;DHT22;42950;52.134;5.578;2023-05-10T14:55:38;14.80;99.90
23721;DHT22;42950;52.134;5.578;2023-05-10T14:58:05;14.70;99.90
23721;DHT22;42950;52.134;5.578;2023-05-10T15:00:31;14.70;99.90
23721;DHT22;42950;52.134;5.578;2023-05-10T15:03:03;14.50;99.90
23721;DHT22;42950;52.134;5.578;2023-05-10T15:05:28;14.50;99.90
23721;DHT22;42950;52.134;5.578;2023-05-10T15:07:55;14.50;99.90
23721;DHT22;42950;52.134;5.578;2023-05-10T15:10:21;14.50;99.90
23721;DHT22;42950;52.134;5.578;2023-05-10T15:12:47;14.70;99.90
23721;DHT22;42950;52.134;5.578;2023-05-10T15:15:12;14.70;99.90
23721;DHT22;42950;52.134;5.578;2023-05-10T15:17:39;14.80;99.90
23721;DHT22;42950;52.134;5.578;2023-05-10T15:20:05;14.80;99.90
23721;DHT22;42950;52.134;5.578;2023-05-10T15:22:32;14.80;99.90
23721;DHT22;42950;52.134;5.578;2023-05-10T15:25:01;14.70;99.90
23721;DHT22;42950;52.134;5.578;2023-05-10T15:27:27;14.70;99.90
23721;DHT22;42950;52.134;5.578;2023-05-10T15:29:53;14.70;99.90
23721;DHT22;42950;52.134;5.578;2023-05-10T15:32:19;14.70;99.90
23721;DHT22;42950;52.134;5.578;2023-05-10T15:34:44;14.80;99.90
23721;DHT22;42950;52.134;5.578;2023-05-10T15:37:10;14.90;99.90
23721;DHT22;42950;52.134;5.578;2023-05-10T15:39:38;15.00;99.90
23721;DHT22;42950;52.134;5.578;2023-05-10T15:42:04;15.00;99.90
23721;DHT22;42950;52.134;5.578;2023-05-10T15:44:30;15.10;99.90
23721;DHT22;42950;52.134;5.578;2023-05-10T15:46:55;15.10;99.90
23721;DHT22;42950;52.134;5.578;2023-05-10T15:49:21;15.10;99.90
23721;DHT22;42950;52.134;5.578;2023-05-10T15:51:46;15.20;99.90
23721;DHT22;42950;52.134;5.578;2023-05-10T15:54:13;15.20;99.90
23721;DHT22;42950;52.134;5.578;2023-05-10T15:56:39;15.30;99.90
23721;DHT22;42950;52.134;5.578;2023-05-10T15:59:04;15.40;99.90
23721;DHT22;42950;52.134;5.578;2023-05-10T16:01:31;15.50;99.90